Time;durP1;ratioP1;P1;durP2;ratioP2;P2;SDS_P1;SDS_P2;PMS_P1;PMS_P2;Temp;Humidity;BMP_temperature;BMP_pressure;BME280_temperature;BME280_humidity;BME280_pressure;Samples;Min_cycle;Max_cycle;Signal;HPM_P1;HPM_P2
2022/11/18 00:00:24;;;;;;;30.95;23.05;;;7.30;99.90;;;;;;5117735;27;20478;-71
2022/11/18 00:02:50;;;;;;;31.48;23.08;;;7.30;99.90;;;;;;5113764;27;20135;-72
2022/11/18 00:05:15;;;;;;;35.30;25.10;;;7.30;99.90;;;;;;5108012;28;20055;-71
2022/11/18 00:07:41;;;;;;;37.35;26.95;;;7.30;99.90;;;;;;5113108;27;20483;-71
2022/11/18 00:10:07;;;;;;;34.63;22.35;;;7.30;99.90;;;;;;5096845;28;20031;-70
2022/11/18 00:15:17;;;;;;;39.20;28.92;;;7.30;99.90;;;;;;5096841;28;20044;-72
2022/11/18 00:17:42;;;;;;;33.38;24.30;;;7.90;99.90;;;;;;5106866;27;20376;-71
2022/11/18 00:20:09;;;;;;;36.88;27.05;;;7.30;99.90;;;;;;5095366;28;20055;-72
2022/11/18 00:22:35;;;;;;;41.05;29.38;;;7.30;99.90;;;;;;5094017;27;20074;-71
2022/11/18 00:25:00;;;;;;;32.60;22.13;;;7.20;99.90;;;;;;5102540;27;20079;-72
2022/11/18 00:27:30;;;;;;;35.58;25.80;;;7.30;99.90;;;;;;5113656;28;20100;-72
2022/11/18 00:29:56;;;;;;;41.90;28.45;;;7.30;99.90;;;;;;5076711;28;20045;-71
2022/11/18 00:32:22;;;;;;;46.42;31.77;;;7.30;99.90;;;;;;5096830;28;20108;-72
2022/11/18 00:34:47;;;;;;;43.58;29.85;;;7.20;99.90;;;;;;5109557;27;20474;-70
2022/11/18 00:37:14;;;;;;;39.13;29.05;;;7.30;99.90;;;;;;5104818;27;20051;-71
2022/11/18 00:39:39;;;;;;;40.85;28.80;;;7.30;99.90;;;;;;5116515;27;20467;-70
2022/11/18 00:44:49;;;;;;;41.17;28.98;;;7.20;99.90;;;;;;5087361;27;20056;-71
2022/11/18 00:47:15;;;;;;;40.65;28.08;;;7.30;99.90;;;;;;5109836;28;20047;-70
2022/11/18 00:49:40;;;;;;;48.22;31.92;;;8.10;99.90;;;;;;5091715;27;20163;-72
2022/11/18 00:52:06;;;;;;;42.33;30.33;;;7.20;99.90;;;;;;5112591;28;20039;-71
2022/11/18 00:54:32;;;;;;;43.63;30.80;;;7.20;99.90;;;;;;5117083;27;20064;-70
2022/11/18 00:56:57;;;;;;;43.60;30.05;;;7.30;99.90;;;;;;5116304;27;20139;-71
2022/11/18 00:59:23;;;;;;;45.33;30.98;;;7.20;99.90;;;;;;5084859;27;20055;-72
2022/11/18 01:01:49;;;;;;;48.47;33.58;;;7.20;99.90;;;;;;5108420;28;20040;-71
2022/11/18 01:04:14;;;;;;;42.10;28.95;;;7.30;99.90;;;;;;5091967;27;20501;-72
2022/11/18 01:06:40;;;;;;;40.45;27.95;;;7.30;99.90;;;;;;5102025;27;20103;-71
2022/11/18 01:09:06;;;;;;;42.28;28.95;;;7.30;99.90;;;;;;5086819;28;20044;-71
2022/11/18 01:14:16;;;;;;;42.25;30.42;;;7.20;99.90;;;;;;5113906;27;20158;-70
2022/11/18 01:16:42;;;;;;;49.42;32.83;;;7.20;99.90;;;;;;5113027;28;20043;-71
2022/11/18 01:19:08;;;;;;;43.97;30.27;;;7.20;99.90;;;;;;5080862;28;20055;-71
2022/11/18 01:21:34;;;;;;;53.47;33.70;;;7.20;99.90;;;;;;5113482;27;20085;-70
2022/11/18 01:23:59;;;;;;;46.25;31.98;;;7.20;99.90;;;;;;5113717;28;20368;-71
2022/11/18 01:26:25;;;;;;;45.25;30.98;;;7.20;99.90;;;;;;5113940;28;20032;-71
2022/11/18 01:28:55;;;;;;;47.63;32.53;;;7.20;99.90;;;;;;5072840;28;20395;-72
2022/11/18 01:31:21;;;;;;;44.13;31.27;;;7.30;99.90;;;;;;5112885;28;20048;-71
2022/11/18 01:33:46;;;;;;;44.70;32.35;;;7.30;99.90;;;;;;5111371;28;20391;-71
2022/11/18 01:36:21;;;;;;;52.25;33.67;;;7.20;99.90;;;;;;5094103;28;20074;-73
2022/11/18 01:38:47;;;;;;;44.03;29.67;;;7.20;99.90;;;;;;5107234;27;20047;-73
2022/11/18 01:41:14;;;;;;;49.22;33.30;;;7.20;99.90;;;;;;5115107;28;20092;-73
2022/11/18 01:43:59;;;;;;;47.60;33.35;;;7.20;99.90;;;;;;5105536;28;20048;-73
2022/11/18 01:46:28;;;;;;;45.20;31.90;;;7.20;99.90;;;;;;5094036;28;20071;-73
2022/11/18 01:49:03;;;;;;;49.13;34.22;;;7.20;99.90;;;;;;5094474;28;20119;-73
2022/11/18 01:51:33;;;;;;;46.60;32.55;;;7.20;99.90;;;;;;5079345;28;20465;-72
2022/11/18 01:54:05;;;;;;;49.53;33.40;;;7.20;99.90;;;;;;5098315;28;20039;-74
2022/11/18 01:56:42;;;;;;;40.53;27.92;;;7.20;99.90;;;;;;5095539;28;20395;-73
2022/11/18 01:59:16;;;;;;;43.30;28.88;;;7.20;99.90;;;;;;5105669;28;20483;-72
2022/11/18 02:01:42;;;;;;;48.00;32.80;;;7.20;99.90;;;;;;5092722;28;20087;-72
2022/11/18 02:04:08;;;;;;;43.80;30.45;;;7.20;99.90;;;;;;5111261;28;20055;-72
2022/11/18 02:06:35;;;;;;;43.35;29.80;;;7.10;99.90;;;;;;5089897;28;20106;-70
2022/11/18 02:09:02;;;;;;;45.60;30.40;;;7.20;99.90;;;;;;5095655;28;20107;-72
2022/11/18 02:14:13;;;;;;;45.03;30.45;;;8.00;99.90;;;;;;5094615;28;20064;-72
2022/11/18 02:16:54;;;;;;;43.15;30.88;;;7.20;99.90;;;;;;5095007;27;20043;-73
2022/11/18 02:19:41;;;;;;;46.70;31.08;;;7.20;99.90;;;;;;5102388;28;20047;-72
2022/11/18 02:22:27;;;;;;;41.53;29.10;;;7.20;99.90;;;;;;5112038;28;20123;-71
2022/11/18 02:25:05;;;;;;;35.30;23.88;;;7.20;99.90;;;;;;5106605;28;20100;-70
2022/11/18 02:27:56;;;;;;;47.40;31.60;;;7.20;99.90;;;;;;5083881;28;20039;-72
2022/11/18 02:30:22;;;;;;;43.75;29.45;;;7.10;99.90;;;;;;5115476;28;20054;-71
2022/11/18 02:33:03;;;;;;;44.20;30.17;;;7.10;99.90;;;;;;5108529;28;20473;-73
2022/11/18 02:35:29;;;;;;;41.15;29.02;;;7.10;99.90;;;;;;5078787;27;20051;-72
2022/11/18 02:38:06;;;;;;;42.08;29.10;;;7.20;99.90;;;;;;5108132;28;20051;-71
2022/11/18 02:40:41;;;;;;;37.78;25.75;;;7.20;99.90;;;;;;5109426;28;20548;-77
2022/11/18 02:43:15;;;;;;;46.35;30.00;;;7.20;99.90;;;;;;5111574;28;20051;-71
2022/11/18 02:45:45;;;;;;;42.92;30.67;;;7.10;99.90;;;;;;5109159;28;20125;-71
2022/11/18 02:48:16;;;;;;;44.85;31.10;;;7.20;99.90;;;;;;5093951;28;20059;-73
2022/11/18 02:50:44;;;;;;;47.38;31.52;;;7.20;99.90;;;;;;5094834;28;20082;-74
2022/11/18 02:53:13;;;;;;;46.50;31.48;;;7.10;99.90;;;;;;5097700;28;20052;-72
2022/11/18 02:55:40;;;;;;;46.00;30.77;;;7.20;99.90;;;;;;5100350;27;20050;-72
2022/11/18 02:58:07;;;;;;;43.17;30.55;;;7.10;99.90;;;;;;5107668;27;20088;-71
2022/11/18 03:00:34;;;;;;;40.80;27.42;;;7.10;99.90;;;;;;5106828;28;20058;-72
2022/11/18 03:03:26;;;;;;;41.03;28.20;;;7.10;99.90;;;;;;5096379;27;20051;-71
2022/11/18 03:06:20;;;;;;;42.95;29.55;;;7.20;99.90;;;;;;5106463;28;20082;-72
2022/11/18 03:09:07;;;;;;;42.53;28.73;;;7.10;99.90;;;;;;5097137;28;20495;-71
2022/11/18 03:11:44;;;;;;;44.58;29.80;;;7.10;99.90;;;;;;5099002;27;20043;-71
2022/11/18 03:14:35;;;;;;;40.45;28.60;;;7.10;99.90;;;;;;5108080;28;20483;-71
2022/11/18 03:17:07;;;;;;;40.10;25.88;;;7.10;99.90;;;;;;5096776;28;20491;-72
2022/11/18 03:19:54;;;;;;;40.40;27.05;;;7.10;99.90;;;;;;5089658;28;20060;-72
2022/11/18 03:22:33;;;;;;;34.47;22.67;;;7.20;99.90;;;;;;5097407;28;20131;-70
2022/11/18 03:25:13;;;;;;;38.47;26.35;;;7.20;99.90;;;;;;5098781;28;20044;-71
2022/11/18 03:27:51;;;;;;;38.70;26.13;;;7.20;99.90;;;;;;5116590;27;20098;-71
2022/11/18 03:30:20;;;;;;;40.47;27.73;;;7.10;99.90;;;;;;5115942;27;20424;-71
2022/11/18 03:32:58;;;;;;;43.38;29.95;;;7.10;99.90;;;;;;5117853;27;20090;-71
2022/11/18 03:35:26;;;;;;;42.10;28.90;;;7.10;99.90;;;;;;5115446;27;20059;-72
2022/11/18 03:38:02;;;;;;;34.30;22.00;;;7.10;99.90;;;;;;5117334;27;20399;-72
2022/11/18 03:40:31;;;;;;;42.25;29.13;;;7.10;99.90;;;;;;5101192;27;20054;-72
2022/11/18 03:43:12;;;;;;;42.85;29.60;;;7.10;99.90;;;;;;5081932;28;20088;-72
2022/11/18 03:45:51;;;;;;;37.95;27.92;;;7.30;99.90;;;;;;5080337;28;20055;-72
2022/11/18 03:48:26;;;;;;;37.47;26.98;;;7.00;99.90;;;;;;5117530;27;20035;-71
2022/11/18 03:51:00;;;;;;;38.35;26.98;;;7.10;99.90;;;;;;5113989;27;20382;-72
2022/11/18 03:53:29;;;;;;;41.47;27.42;;;7.00;99.90;;;;;;5100242;27;20042;-72
2022/11/18 03:56:01;;;;;;;38.70;26.05;;;7.10;99.90;;;;;;5112978;27;20039;-71
2022/11/18 03:58:32;;;;;;;37.25;26.55;;;7.00;99.90;;;;;;5117261;27;20042;-71
2022/11/18 04:01:07;;;;;;;41.78;27.63;;;7.00;99.90;;;;;;5099416;27;20043;-73
2022/11/18 04:03:33;;;;;;;33.05;23.33;;;7.00;99.90;;;;;;5086251;27;20051;-71
2022/11/18 04:06:11;;;;;;;37.72;27.55;;;7.10;99.90;;;;;;5116709;27;20050;-71
2022/11/18 04:08:39;;;;;;;39.00;27.75;;;7.00;99.90;;;;;;5103623;27;20042;-72
2022/11/18 04:12:01;;;;;;;35.00;25.98;;;7.00;99.90;;;;;;5116143;27;20051;-72
2022/11/18 04:14:05;;;;;;;36.85;24.35;;;7.00;99.90;;;;;;5096520;28;20056;-72
2022/11/18 04:16:41;;;;;;;35.72;25.70;;;7.00;99.90;;;;;;5095734;28;20506;-72
2022/11/18 04:19:07;;;;;;;34.03;25.35;;;7.00;99.90;;;;;;5102177;28;20069;-71
2022/11/18 04:21:33;;;;;;;38.88;25.40;;;7.20;99.90;;;;;;5113875;27;20507;-71
2022/11/18 04:23:58;;;;;;;38.95;26.40;;;7.00;99.90;;;;;;5096566;28;20042;-70
2022/11/18 04:26:24;;;;;;;38.55;26.13;;;7.00;99.90;;;;;;5102349;28;20058;-71
2022/11/18 04:28:50;;;;;;;36.85;25.70;;;7.00;99.90;;;;;;5112552;27;20228;-71
2022/11/18 04:31:16;;;;;;;39.58;26.63;;;7.00;99.90;;;;;;5082640;27;20066;-71
2022/11/18 04:33:41;;;;;;;36.83;25.25;;;7.10;99.90;;;;;;5084929;27;20066;-72
2022/11/18 04:36:07;;;;;;;33.35;22.85;;;7.00;99.90;;;;;;5068678;27;20093;-72
2022/11/18 04:38:33;;;;;;;38.35;25.60;;;7.00;99.90;;;;;;5104342;28;20086;-71
2022/11/18 04:40:58;;;;;;;43.85;27.73;;;6.90;99.90;;;;;;5112983;27;20046;-72
2022/11/18 04:43:24;;;;;;;36.10;23.15;;;6.90;99.90;;;;;;5106242;27;20050;-72
2022/11/18 04:45:50;;;;;;;40.88;26.58;;;6.90;99.90;;;;;;5115861;27;20047;-72
2022/11/18 04:48:15;;;;;;;39.63;25.05;;;6.90;99.90;;;;;;5096216;28;20043;-72
2022/11/18 04:50:41;;;;;;;41.40;25.33;;;7.00;99.90;;;;;;5089877;28;20058;-73
2022/11/18 04:53:07;;;;;;;37.17;25.15;;;7.00;99.90;;;;;;5116001;27;20398;-71
2022/11/18 04:55:35;;;;;;;46.10;26.20;;;7.00;99.90;;;;;;5098587;27;20395;-71
2022/11/18 04:58:00;;;;;;;36.53;24.00;;;6.90;99.90;;;;;;5094506;28;20114;-71
2022/11/18 05:00:27;;;;;;;44.05;26.15;;;6.90;99.90;;;;;;5079010;28;20189;-75
2022/11/18 05:02:52;;;;;;;40.80;26.90;;;6.90;99.90;;;;;;5080763;27;20458;-71
2022/11/18 05:05:18;;;;;;;49.05;27.88;;;6.90;99.90;;;;;;5098807;27;20122;-72
2022/11/18 05:07:44;;;;;;;42.80;25.77;;;6.80;99.90;;;;;;5102314;28;20062;-72
2022/11/18 05:10:10;;;;;;;41.15;25.38;;;7.00;99.90;;;;;;5094143;28;20529;-72
2022/11/18 05:12:53;;;;;;;42.53;26.08;;;6.80;99.90;;;;;;5078830;28;20044;-73
2022/11/18 05:15:22;;;;;;;40.90;26.35;;;6.80;99.90;;;;;;5099906;27;20053;-72
2022/11/18 05:17:49;;;;;;;37.22;24.73;;;6.90;99.90;;;;;;5098577;27;20039;-72
2022/11/18 05:20:15;;;;;;;42.33;25.55;;;6.80;99.90;;;;;;5097963;27;20047;-72
2022/11/18 05:22:41;;;;;;;44.60;25.40;;;6.90;99.90;;;;;;5091037;28;20043;-72
2022/11/18 05:25:07;;;;;;;41.30;24.98;;;6.80;99.90;;;;;;5114498;27;20099;-71
2022/11/18 05:27:33;;;;;;;40.72;25.65;;;6.80;99.90;;;;;;5078475;28;20078;-71
2022/11/18 05:29:59;;;;;;;36.30;23.73;;;6.80;99.90;;;;;;5070459;28;20079;-71
2022/11/18 05:32:24;;;;;;;46.60;27.42;;;6.90;99.90;;;;;;5092461;28;20113;-71
2022/11/18 05:34:50;;;;;;;45.85;27.80;;;6.90;99.90;;;;;;5101513;28;20138;-71
2022/11/18 05:37:16;;;;;;;40.45;24.00;;;6.80;99.90;;;;;;5100429;28;20097;-71
2022/11/18 05:39:41;;;;;;;42.72;26.50;;;6.80;99.90;;;;;;5134023;28;20046;-71
2022/11/18 05:44:52;;;;;;;43.58;25.88;;;6.90;99.90;;;;;;5107385;28;20063;-72
2022/11/18 05:47:18;;;;;;;38.30;23.48;;;6.80;99.90;;;;;;5061496;28;20364;-71
2022/11/18 05:49:44;;;;;;;42.17;26.20;;;6.80;99.90;;;;;;5098607;28;20130;-72
2022/11/18 05:52:09;;;;;;;49.70;29.17;;;6.70;99.90;;;;;;5102724;28;20055;-71
2022/11/18 05:54:41;;;;;;;42.70;25.85;;;6.70;99.90;;;;;;5113710;28;20106;-71
2022/11/18 05:57:06;;;;;;;44.17;27.05;;;6.70;99.90;;;;;;5103242;28;20044;-72
2022/11/18 05:59:32;;;;;;;42.05;25.52;;;6.90;99.90;;;;;;5097928;28;20054;-71
2022/11/18 06:02:09;;;;;;;42.20;25.25;;;6.80;99.90;;;;;;5124946;28;20077;-72
2022/11/18 06:04:56;;;;;;;39.53;23.90;;;6.70;99.90;;;;;;5108802;28;20048;-73
2022/11/18 06:07:27;;;;;;;44.72;26.90;;;6.80;99.90;;;;;;5115043;28;20043;-71
2022/11/18 06:09:57;;;;;;;41.10;24.73;;;6.70;99.90;;;;;;5086813;28;20406;-71
2022/11/18 06:12:28;;;;;;;43.10;24.98;;;6.70;99.90;;;;;;5097491;28;20079;-71
2022/11/18 06:15:00;;;;;;;41.72;25.10;;;6.70;99.90;;;;;;5096809;28;20048;-71
2022/11/18 06:17:35;;;;;;;38.50;23.20;;;6.70;99.90;;;;;;5097528;28;20074;-73
2022/11/18 06:20:03;;;;;;;38.08;23.77;;;6.70;99.90;;;;;;5112467;28;20052;-71
2022/11/18 06:22:29;;;;;;;43.45;26.05;;;6.70;99.90;;;;;;5105055;28;20059;-71
2022/11/18 06:24:54;;;;;;;44.63;25.50;;;6.70;99.90;;;;;;5104316;28;20040;-71
2022/11/18 06:27:20;;;;;;;41.63;25.85;;;6.70;99.90;;;;;;5096104;28;20031;-70
2022/11/18 06:29:46;;;;;;;49.05;28.13;;;6.70;99.90;;;;;;5096164;28;20051;-72
2022/11/18 06:32:12;;;;;;;45.20;25.65;;;6.60;99.90;;;;;;5083602;27;20391;-71
2022/11/18 06:34:37;;;;;;;41.53;23.85;;;6.60;99.90;;;;;;5136788;27;20043;-73
2022/11/18 06:37:19;;;;;;;45.42;24.67;;;6.60;99.90;;;;;;5118455;27;20126;-74
2022/11/18 06:39:45;;;;;;;47.00;25.55;;;6.60;99.90;;;;;;5089909;27;20047;-72
2022/11/18 06:43:37;;;;;;;59.95;30.38;;;6.50;99.90;;;;;;5112732;27;20054;-74
2022/11/18 06:44:56;;;;;;;48.60;24.38;;;6.50;99.90;;;;;;5112518;27;20566;-73
2022/11/18 06:47:22;;;;;;;49.45;25.63;;;6.50;99.90;;;;;;5104875;27;20079;-73
2022/11/18 06:49:48;;;;;;;55.63;27.08;;;6.50;99.90;;;;;;5096525;27;20122;-72
2022/11/18 06:52:13;;;;;;;47.42;25.60;;;6.50;99.90;;;;;;5090728;27;20126;-72
2022/11/18 06:54:39;;;;;;;47.92;25.77;;;6.50;99.90;;;;;;5094070;27;20475;-72
2022/11/18 06:57:05;;;;;;;48.95;23.42;;;6.60;99.90;;;;;;5102871;27;20032;-74
2022/11/18 06:59:31;;;;;;;50.22;26.45;;;6.50;99.90;;;;;;5099636;28;20040;-72
2022/11/18 07:01:56;;;;;;;56.75;27.35;;;6.40;99.90;;;;;;5104066;27;20055;-74
2022/11/18 07:04:22;;;;;;;46.92;25.38;;;6.40;99.90;;;;;;5114625;27;20051;-71
2022/11/18 07:06:48;;;;;;;46.90;24.67;;;6.40;99.90;;;;;;5110102;27;20047;-71
2022/11/18 07:09:14;;;;;;;38.92;22.70;;;6.40;99.90;;;;;;5117297;27;20502;-72
2022/11/18 07:11:40;;;;;;;42.70;24.15;;;6.40;99.90;;;;;;5116277;27;20054;-73
2022/11/18 07:14:07;;;;;;;39.88;23.58;;;6.40;99.90;;;;;;5117661;27;20043;-72
2022/11/18 07:16:35;;;;;;;37.75;21.15;;;6.40;99.90;;;;;;5108386;27;20407;-71
2022/11/18 07:19:06;;;;;;;37.70;23.30;;;6.40;99.90;;;;;;5099500;27;20059;-72
2022/11/18 07:21:32;;;;;;;44.75;26.15;;;6.40;99.90;;;;;;5113983;27;20118;-72
2022/11/18 07:23:57;;;;;;;35.53;20.15;;;6.40;99.90;;;;;;5100162;27;20118;-73
2022/11/18 07:26:23;;;;;;;31.00;18.38;;;6.40;99.90;;;;;;5075917;27;20181;-72
2022/11/18 07:28:49;;;;;;;29.63;18.75;;;6.40;99.90;;;;;;5090455;27;20039;-72
2022/11/18 07:31:17;;;;;;;30.98;19.42;;;6.40;99.90;;;;;;5104481;27;20047;-72
2022/11/18 07:33:45;;;;;;;30.75;19.67;;;6.40;99.90;;;;;;5106270;27;20074;-73
2022/11/18 07:36:16;;;;;;;31.38;19.90;;;6.40;99.90;;;;;;5105855;27;20126;-74
2022/11/18 07:38:42;;;;;;;32.03;20.52;;;6.30;99.90;;;;;;5107001;27;20043;-74
2022/11/18 07:41:14;;;;;;;28.40;15.45;;;6.30;99.90;;;;;;5098476;27;20047;-71
2022/11/18 07:43:41;;;;;;;29.25;17.73;;;6.30;99.90;;;;;;5117609;27;20043;-72
2022/11/18 07:46:19;;;;;;;25.40;12.57;;;6.40;99.90;;;;;;5099746;27;20497;-72
2022/11/18 07:48:47;;;;;;;24.83;14.32;;;6.40;99.90;;;;;;5117213;27;20120;-74
2022/11/18 07:51:14;;;;;;;28.33;18.30;;;6.30;99.90;;;;;;5099892;27;20180;-73
2022/11/18 07:53:40;;;;;;;33.92;20.40;;;6.40;99.90;;;;;;5100374;27;20471;-73
2022/11/18 07:56:07;;;;;;;34.10;21.25;;;6.30;99.90;;;;;;5099229;27;20480;-72
2022/11/18 07:58:33;;;;;;;32.63;20.75;;;6.30;99.90;;;;;;5117497;27;20079;-72
2022/11/18 08:01:04;;;;;;;31.27;21.00;;;6.30;99.90;;;;;;5115637;27;20075;-73
2022/11/18 08:03:30;;;;;;;34.15;21.38;;;6.40;99.90;;;;;;5117111;27;20047;-72
2022/11/18 08:06:00;;;;;;;32.75;20.80;;;6.20;99.90;;;;;;5104029;28;20047;-73
2022/11/18 08:08:26;;;;;;;34.47;19.23;;;6.30;99.90;;;;;;5109263;27;20051;-75
2022/11/18 08:10:56;;;;;;;36.45;22.50;;;6.20;99.90;;;;;;5113032;27;20047;-72
2022/11/18 08:13:22;;;;;;;31.05;20.13;;;6.20;99.90;;;;;;5094499;27;20122;-75
2022/11/18 08:15:48;;;;;;;27.45;14.82;;;6.30;99.90;;;;;;5094490;28;20131;-74
2022/11/18 08:18:13;;;;;;;35.58;21.63;;;6.20;99.90;;;;;;5096734;27;20122;-72
2022/11/18 08:20:39;;;;;;;34.53;20.48;;;6.20;99.90;;;;;;5114177;27;20047;-72
2022/11/18 08:23:05;;;;;;;36.75;22.10;;;6.30;99.90;;;;;;5096655;27;20039;-73
2022/11/18 08:25:30;;;;;;;38.50;23.77;;;6.20;99.90;;;;;;5094046;27;20133;-73
2022/11/18 08:27:56;;;;;;;33.30;18.85;;;6.20;99.90;;;;;;5108751;27;20043;-75
2022/11/18 08:30:22;;;;;;;35.95;22.50;;;6.20;99.90;;;;;;5111390;27;20478;-72
2022/11/18 08:32:48;;;;;;;41.10;23.77;;;6.20;99.90;;;;;;5106172;27;20126;-73
2022/11/18 08:35:13;;;;;;;36.13;19.90;;;6.20;99.90;;;;;;5110650;27;20063;-73
2022/11/18 08:37:39;;;;;;;31.73;21.38;;;6.20;99.90;;;;;;5093973;27;20543;-74
2022/11/18 08:40:05;;;;;;;34.55;21.52;;;6.20;99.90;;;;;;5111842;27;20063;-73
2022/11/18 08:42:31;;;;;;;36.47;22.90;;;6.20;99.90;;;;;;5113368;27;20055;-73
2022/11/18 08:44:57;;;;;;;37.13;22.80;;;6.10;99.90;;;;;;5111540;27;20050;-72
2022/11/18 08:47:23;;;;;;;31.70;20.90;;;6.10;99.90;;;;;;5113637;27;20059;-72
2022/11/18 08:49:49;;;;;;;34.35;21.60;;;6.10;99.90;;;;;;5111808;27;20060;-73
2022/11/18 08:52:14;;;;;;;35.83;22.00;;;6.20;99.90;;;;;;5113329;27;20055;-72
2022/11/18 08:54:40;;;;;;;36.53;22.23;;;6.20;99.90;;;;;;5109522;27;20043;-73
2022/11/18 08:57:06;;;;;;;43.55;25.25;;;6.10;99.90;;;;;;5108340;27;20039;-72
2022/11/18 08:59:31;;;;;;;30.83;18.10;;;6.10;99.90;;;;;;5110412;27;20055;-71
2022/11/18 09:01:57;;;;;;;36.03;23.38;;;6.20;99.90;;;;;;5106981;27;20048;-73
2022/11/18 09:04:23;;;;;;;28.67;17.88;;;6.20;99.90;;;;;;5104676;27;20059;-72
2022/11/18 09:06:48;;;;;;;33.25;20.95;;;6.20;99.90;;;;;;5109163;28;20507;-71
2022/11/18 09:09:15;;;;;;;29.75;17.00;;;6.20;99.90;;;;;;5109859;27;20046;-73
2022/11/18 09:11:41;;;;;;;28.05;17.88;;;6.20;99.90;;;;;;5090464;27;20047;-73
2022/11/18 09:14:09;;;;;;;31.35;20.80;;;6.20;99.90;;;;;;5102323;27;20503;-73
2022/11/18 09:16:35;;;;;;;29.05;17.13;;;6.20;99.90;;;;;;5112687;27;20035;-72
2022/11/18 09:19:01;;;;;;;30.85;20.83;;;6.10;99.90;;;;;;5093961;27;20050;-71
2022/11/18 09:21:28;;;;;;;30.60;20.00;;;6.10;99.90;;;;;;5113226;27;20441;-73
2022/11/18 09:23:53;;;;;;;32.25;21.98;;;6.20;99.90;;;;;;5109882;27;20112;-73
2022/11/18 09:26:22;;;;;;;34.03;20.90;;;6.10;99.90;;;;;;5112823;27;20382;-73
2022/11/18 09:28:51;;;;;;;33.40;21.27;;;6.20;99.90;;;;;;5096038;27;20425;-73
2022/11/18 09:31:17;;;;;;;29.05;18.15;;;6.20;99.90;;;;;;5111898;28;20079;-73
2022/11/18 09:33:43;;;;;;;30.88;20.20;;;6.20;99.90;;;;;;5094963;27;20039;-72
2022/11/18 09:36:15;;;;;;;28.27;17.75;;;6.20;99.90;;;;;;5112064;27;20044;-73
2022/11/18 09:38:41;;;;;;;24.83;16.40;;;6.50;99.90;;;;;;5111045;28;20051;-72
2022/11/18 09:41:29;;;;;;;27.95;18.27;;;6.20;99.90;;;;;;5109626;28;20335;-71
2022/11/18 09:44:05;;;;;;;27.00;18.95;;;6.20;99.90;;;;;;5111210;27;20078;-72
2022/11/18 09:47:02;;;;;;;28.27;19.48;;;6.20;99.90;;;;;;5110759;28;20039;-72
2022/11/18 09:49:35;;;;;;;24.40;15.15;;;6.10;99.90;;;;;;5093594;28;20047;-73
2022/11/18 09:52:06;;;;;;;29.90;19.17;;;6.20;99.90;;;;;;5108151;28;20055;-74
2022/11/18 09:54:36;;;;;;;30.52;19.95;;;6.10;99.90;;;;;;5109931;28;20411;-73
2022/11/18 09:57:10;;;;;;;29.90;20.38;;;6.20;99.90;;;;;;5111141;28;20039;-73
2022/11/18 09:59:36;;;;;;;33.17;21.20;;;6.20;99.90;;;;;;5129572;27;20058;-72
2022/11/18 10:02:10;;;;;;;33.03;20.10;;;6.20;99.90;;;;;;5109371;27;20116;-72
2022/11/18 10:04:36;;;;;;;33.25;20.58;;;6.20;99.90;;;;;;5114347;27;20051;-72
2022/11/18 10:07:13;;;;;;;29.67;18.65;;;6.20;99.90;;;;;;5050123;28;20057;-72
2022/11/18 10:09:40;;;;;;;27.98;19.70;;;6.20;99.90;;;;;;5093364;28;20430;-73
2022/11/18 10:12:36;;;;;;;30.08;19.63;;;6.30;99.90;;;;;;5079994;28;20051;-70
2022/11/18 10:15:05;;;;;;;27.75;19.00;;;6.30;99.90;;;;;;5092739;28;20483;-71
2022/11/18 10:18:21;;;;;;;26.50;18.13;;;6.30;99.90;;;;;;5093604;28;20093;-71
2022/11/18 10:21:00;;;;;;;28.85;18.38;;;6.40;99.90;;;;;;5060738;28;20051;-72
2022/11/18 10:23:42;;;;;;;31.67;20.85;;;6.40;99.90;;;;;;5095376;28;20193;-72
2022/11/18 10:26:08;;;;;;;29.00;19.33;;;6.40;99.90;;;;;;5093641;28;20043;-72
2022/11/18 10:28:34;;;;;;;27.33;17.50;;;6.30;99.90;;;;;;5095743;28;20067;-74
2022/11/18 10:31:17;;;;;;;27.92;18.30;;;6.30;99.90;;;;;;5091093;28;20039;-73
2022/11/18 10:33:43;;;;;;;28.15;19.20;;;6.30;99.90;;;;;;5095243;28;20044;-73
2022/11/18 10:36:26;;;;;;;23.48;15.40;;;6.30;99.90;;;;;;5093207;28;20047;-72
2022/11/18 10:39:15;;;;;;;23.85;17.42;;;6.30;99.90;;;;;;5095959;28;20161;-73
2022/11/18 10:41:51;;;;;;;23.88;16.30;;;6.20;99.90;;;;;;5092036;28;20381;-71
2022/11/18 10:44:38;;;;;;;26.80;18.52;;;6.50;99.90;;;;;;5092359;28;20077;-72
2022/11/18 10:47:27;;;;;;;23.52;16.67;;;6.20;99.90;;;;;;5095136;28;20501;-72
2022/11/18 10:50:33;;;;;;;24.88;18.10;;;6.20;99.90;;;;;;5079167;28;20052;-71
2022/11/18 10:52:59;;;;;;;27.38;18.70;;;6.20;99.90;;;;;;5094310;28;20040;-72
2022/11/18 10:55:26;;;;;;;26.92;18.13;;;6.10;99.90;;;;;;5090377;28;20059;-72
2022/11/18 10:58:01;;;;;;;27.85;18.80;;;6.10;99.90;;;;;;5093551;28;20480;-73
2022/11/18 11:00:33;;;;;;;22.48;14.70;;;6.10;99.90;;;;;;5095483;28;20039;-73
2022/11/18 11:02:59;;;;;;;24.52;17.50;;;6.10;99.90;;;;;;5093815;28;20503;-71
2022/11/18 11:05:25;;;;;;;22.20;14.27;;;6.00;99.90;;;;;;5093980;28;20044;-72
2022/11/18 11:08:02;;;;;;;25.58;18.15;;;6.00;99.90;;;;;;5078432;28;20059;-73
2022/11/18 11:10:28;;;;;;;29.80;19.27;;;6.00;99.90;;;;;;5095130;28;20140;-72
2022/11/18 11:13:15;;;;;;;21.10;14.30;;;6.00;99.90;;;;;;5092390;28;20444;-72
2022/11/18 11:15:45;;;;;;;30.48;19.08;;;6.00;99.90;;;;;;5074455;28;20052;-72
2022/11/18 11:18:40;;;;;;;27.65;18.42;;;5.90;99.90;;;;;;5110839;28;20047;-73
2022/11/18 11:21:17;;;;;;;29.05;19.30;;;6.00;99.90;;;;;;5091991;28;20059;-75
2022/11/18 11:23:43;;;;;;;20.67;13.10;;;5.90;99.90;;;;;;5077487;28;20051;-74
2022/11/18 11:27:13;;;;;;;27.15;18.10;;;5.90;99.90;;;;;;5091093;28;20048;-74
2022/11/18 11:29:54;;;;;;;25.00;15.90;;;5.80;99.90;;;;;;5034094;28;20550;-74
2022/11/18 11:32:32;;;;;;;28.08;17.92;;;5.80;99.90;;;;;;5111891;28;20071;-74
2022/11/18 11:35:23;;;;;;;27.75;17.08;;;5.70;99.90;;;;;;5094187;28;20471;-74
2022/11/18 11:37:52;;;;;;;23.57;14.80;;;5.70;99.90;;;;;;5089839;28;20125;-73
2022/11/18 11:40:35;;;;;;;24.65;16.45;;;5.70;99.90;;;;;;5092939;28;20332;-74
2022/11/18 11:43:27;;;;;;;24.13;13.45;;;5.80;99.90;;;;;;5095557;28;20048;-75
2022/11/18 11:45:56;;;;;;;21.98;13.55;;;5.80;99.90;;;;;;5074642;28;20052;-71
2022/11/18 11:48:40;;;;;;;26.33;17.15;;;5.70;99.90;;;;;;5091349;28;20043;-74
2022/11/18 11:51:35;;;;;;;27.67;14.75;;;5.70;99.90;;;;;;5091113;28;20035;-76
2022/11/18 11:54:23;;;;;;;25.40;16.42;;;5.70;99.90;;;;;;5076722;28;20043;-78
2022/11/18 11:57:22;;;;;;;34.58;19.15;;;5.70;99.90;;;;;;5066678;28;20115;-77
2022/11/18 12:00:02;;;;;;;42.40;22.77;;;5.60;99.90;;;;;;5076960;28;20035;-76
2022/11/18 12:02:36;;;;;;;28.33;15.90;;;5.50;99.90;;;;;;5093617;28;20104;-75
2022/11/18 12:05:23;;;;;;;30.70;18.52;;;5.60;99.90;;;;;;5073536;28;20067;-77
2022/11/18 12:07:59;;;;;;;30.10;19.65;;;5.60;99.90;;;;;;5093388;28;20472;-77
2022/11/18 12:10:43;;;;;;;27.23;16.90;;;5.60;99.90;;;;;;5092012;28;20044;-74
2022/11/18 12:13:40;;;;;;;24.33;15.20;;;5.60;99.90;;;;;;5108648;28;20066;-76
2022/11/18 12:16:29;;;;;;;28.98;16.63;;;5.50;99.90;;;;;;5072527;28;20050;-76
2022/11/18 12:19:05;;;;;;;24.50;15.00;;;5.50;99.90;;;;;;5076046;28;20051;-77
2022/11/18 12:21:46;;;;;;;26.38;17.05;;;5.60;99.90;;;;;;5093478;28;20047;-77
2022/11/18 12:24:37;;;;;;;24.00;16.00;;;5.50;99.90;;;;;;5075387;28;20036;-76
2022/11/18 12:27:10;;;;;;;25.20;14.70;;;5.60;99.90;;;;;;5088531;28;20104;-75
2022/11/18 12:29:37;;;;;;;26.90;16.10;;;5.50;99.90;;;;;;5090644;28;20054;-77
2022/11/18 12:32:25;;;;;;;34.08;20.42;;;5.50;99.90;;;;;;5074968;28;20047;-74
2022/11/18 12:35:20;;;;;;;31.65;17.98;;;5.30;99.90;;;;;;5091552;28;20483;-77
2022/11/18 12:37:52;;;;;;;27.95;17.13;;;5.30;99.90;;;;;;5089853;28;20062;-76
2022/11/18 12:40:35;;;;;;;36.30;21.10;;;5.30;99.90;;;;;;5092707;28;20044;-74
2022/11/18 12:45:55;;;;;;;39.03;22.70;;;5.20;99.90;;;;;;5089204;28;20142;-77
2022/11/18 12:48:41;;;;;;;30.52;17.67;;;5.10;99.90;;;;;;5087524;28;20047;-73
2022/11/18 12:51:17;;;;;;;25.48;15.13;;;5.20;99.90;;;;;;5105575;28;20061;-75
2022/11/18 12:53:51;;;;;;;34.65;20.50;;;5.10;99.90;;;;;;5090684;28;20051;-75
2022/11/18 12:56:16;;;;;;;28.50;17.27;;;5.30;99.90;;;;;;5088042;28;20101;-77
2022/11/18 12:58:51;;;;;;;25.48;14.65;;;5.10;99.90;;;;;;5089887;28;20043;-78
2022/11/18 13:01:19;;;;;;;29.73;17.73;;;5.10;99.90;;;;;;5073504;28;20251;-74
2022/11/18 13:03:45;;;;;;;27.75;15.70;;;5.10;99.90;;;;;;5070961;28;20055;-75
2022/11/18 13:06:24;;;;;;;30.55;18.13;;;5.00;99.90;;;;;;5091004;28;20144;-75
2022/11/18 13:08:54;;;;;;;28.55;17.65;;;5.00;99.90;;;;;;5073887;28;20150;-73
2022/11/18 13:19:41;;;;;;;34.13;20.25;;;5.00;99.90;;;;;;5089167;28;20050;-77
2022/11/18 13:25:02;;;;;;;35.35;20.95;;;4.90;99.90;;;;;;5109007;28;20054;-79